createdAt,value
2023-03-05T00:01:07.909Z,100044.34
2023-03-05T00:06:09.926Z,100045.56
2023-03-05T00:11:12.910Z,100059.31
2023-03-05T00:16:15.847Z,100009.53
2023-03-05T00:21:29.392Z,100121.25
2023-03-05T00:26:34.413Z,100017.63
2023-03-05T00:31:37.439Z,99993.59
2023-03-05T00:36:50.462Z,100017.91
2023-03-05T00:41:52.710Z,100067.06
2023-03-05T00:46:54.482Z,100054.72
2023-03-05T00:51:56.207Z,100113.53
2023-03-05T00:56:57.908Z,100052.25
2023-03-05T01:01:59.534Z,100037.25
2023-03-05T01:07:01.402Z,100109.25
2023-03-05T01:12:03.266Z,100157.97
2023-03-05T01:17:04.978Z,100086.56
2023-03-05T01:22:06.645Z,100050.25
2023-03-05T01:27:08.296Z,100048.84
2023-03-05T01:32:09.996Z,99996.91
2023-03-05T01:37:11.581Z,99874.03
2023-03-05T01:42:13.272Z,99913.25
2023-03-05T01:47:14.853Z,100013.00
2023-03-05T01:52:19.711Z,100144.47
2023-03-05T01:57:45.041Z,100073.88
2023-03-05T02:02:50.959Z,99993.53
2023-03-05T02:08:01.024Z,99996.31
2023-03-05T02:13:06.735Z,99905.31
2023-03-05T02:18:09.251Z,99957.19
2023-03-05T02:23:10.869Z,99930.69
2023-03-05T02:28:19.392Z,99871.44
2023-03-05T02:33:21.342Z,99933.47
2023-03-05T02:38:22.958Z,99906.72
2023-03-05T02:43:24.900Z,99862.13
2023-03-05T02:48:26.497Z,99951.25
2023-03-05T02:53:28.098Z,99882.16
2023-03-05T02:58:29.718Z,99975.84
2023-03-05T03:03:31.481Z,99961.63
2023-03-05T03:08:33.099Z,99900.72
2023-03-05T03:13:35.128Z,99905.19
2023-03-05T03:18:37.067Z,99847.06
2023-03-05T03:23:38.630Z,99889.16
2023-03-05T03:28:40.366Z,99936.53
2023-03-05T03:33:42.053Z,99863.78
2023-03-05T03:38:43.853Z,99809.31
2023-03-05T03:43:45.465Z,99884.25
2023-03-05T03:48:50.643Z,99975.91
2023-03-05T03:53:52.228Z,99915.34
2023-03-05T03:58:54.434Z,99902.09
2023-03-05T04:03:56.134Z,99867.91
2023-03-05T04:08:58.179Z,99875.56
2023-03-05T04:13:59.719Z,99948.50
2023-03-05T04:19:01.249Z,99846.75
2023-03-05T04:24:03.111Z,99804.25
2023-03-05T04:29:04.816Z,99876.22
2023-03-05T04:34:06.391Z,99839.66
2023-03-05T04:39:08.017Z,99913.38
2023-03-05T04:44:09.594Z,99795.19
2023-03-05T04:49:11.255Z,99800.03
2023-03-05T04:54:12.892Z,99766.34
2023-03-05T04:59:14.595Z,99803.81
2023-03-05T05:04:16.208Z,99840.06
2023-03-05T05:09:17.847Z,99810.59
2023-03-05T05:14:20.133Z,99806.19
2023-03-05T05:19:22.069Z,100015.63
2023-03-05T05:24:23.944Z,99954.47
2023-03-05T05:29:26.173Z,99817.81
2023-03-05T05:34:27.747Z,99825.66
2023-03-05T05:39:29.407Z,99784.94
2023-03-05T05:44:31.089Z,99763.53
2023-03-05T05:49:32.698Z,99822.94
2023-03-05T05:54:34.781Z,99864.41
2023-03-05T05:59:37.522Z,99815.97
2023-03-05T06:04:40.329Z,99816.41
2023-03-05T06:09:41.946Z,99876.41
2023-03-05T06:14:43.648Z,99882.81
2023-03-05T06:19:45.775Z,99848.13
2023-03-05T06:24:47.373Z,99910.03
2023-03-05T06:29:52.597Z,99784.75
2023-03-05T06:34:54.337Z,99876.09
2023-03-05T06:39:55.991Z,99776.41
2023-03-05T06:44:57.536Z,99768.53
2023-03-05T06:49:59.105Z,99764.63
2023-03-05T06:55:00.698Z,99859.78
2023-03-05T07:00:07.971Z,99794.38
2023-03-05T07:05:09.911Z,99785.69
2023-03-05T07:10:11.900Z,99813.47
2023-03-05T07:15:13.554Z,99835.38
2023-03-05T07:20:15.311Z,99750.91
2023-03-05T07:25:21.525Z,99862.47
2023-03-05T07:30:23.236Z,99849.25
2023-03-05T07:35:25.083Z,99804.69
2023-03-05T07:40:26.696Z,99835.56
2023-03-05T07:45:28.451Z,99746.19
2023-03-05T07:50:30.008Z,99767.78
2023-03-05T07:55:31.609Z,99796.34
2023-03-05T08:00:33.185Z,99759.47
2023-03-05T08:05:34.996Z,99788.41
2023-03-05T08:10:37.738Z,99726.06
2023-03-05T08:15:39.422Z,99774.69
2023-03-05T08:20:41.106Z,99903.78
2023-03-05T08:25:42.662Z,99720.19
2023-03-05T08:30:44.347Z,99803.88
2023-03-05T08:35:46.190Z,99728.75
2023-03-05T08:40:48.268Z,99698.59
2023-03-05T08:45:51.320Z,99792.38
2023-03-05T08:50:53.278Z,99777.16
2023-03-05T08:55:56.588Z,99798.56
2023-03-05T09:00:58.335Z,99728.94
2023-03-05T09:06:04.902Z,99773.84
2023-03-05T09:11:08.453Z,99800.06
2023-03-05T09:16:15.894Z,99759.31
2023-03-05T09:21:18.193Z,99709.03
2023-03-05T09:26:20.213Z,99751.31
2023-03-05T09:31:21.840Z,99719.19
2023-03-05T09:36:28.112Z,99743.03
2023-03-05T09:42:04.315Z,99690.41
2023-03-05T09:47:33.310Z,99706.38
2023-03-05T09:52:50.375Z,99770.13
2023-03-05T09:57:55.426Z,99685.81
2023-03-05T10:02:59.617Z,99707.88
2023-03-05T10:08:04.943Z,99690.47
2023-03-05T10:13:16.532Z,99723.47
2023-03-05T10:18:49.400Z,99677.19
2023-03-05T10:24:01.523Z,99725.31
2023-03-05T10:29:36.260Z,99836.75
2023-03-05T10:35:07.598Z,99752.09
2023-03-05T10:40:47.965Z,99673.09
2023-03-05T10:45:54.417Z,99701.00
2023-03-05T10:51:02.693Z,99646.22
2023-03-05T10:56:06.270Z,99660.75
2023-03-05T11:06:43.403Z,99672.47
2023-03-05T11:12:08.472Z,99727.78
2023-03-05T11:17:24.758Z,99707.09
2023-03-05T11:22:26.336Z,99621.22
2023-03-05T11:27:33.668Z,99692.00
2023-03-05T11:32:35.418Z,99620.22
2023-03-05T11:37:37.058Z,99611.31
2023-03-05T11:42:40.924Z,99714.13
2023-03-05T11:47:50.358Z,99584.84
2023-03-05T11:52:57.230Z,99644.81
2023-03-05T11:58:17.377Z,99619.25
2023-03-05T12:03:24.214Z,99704.59
2023-03-05T12:08:33.828Z,99631.16
2023-03-05T12:13:42.489Z,99586.13
2023-03-05T12:19:07.848Z,99631.34
2023-03-05T12:24:27.492Z,99554.28
2023-03-05T12:29:41.967Z,99596.53
2023-03-05T12:34:49.801Z,99639.66
2023-03-05T12:40:10.921Z,99558.00
2023-03-05T12:45:12.709Z,99548.91
2023-03-05T12:50:29.315Z,99589.81
2023-03-05T12:55:45.871Z,99625.03
2023-03-05T13:00:59.401Z,99526.34
2023-03-05T13:06:04.090Z,99586.94
2023-03-05T13:11:09.575Z,99545.19
2023-03-05T13:16:23.982Z,99646.78
2023-03-05T13:21:29.729Z,99483.47
2023-03-05T13:26:40.282Z,99546.09
2023-03-05T13:31:50.148Z,99503.41
2023-03-05T13:37:01.359Z,99523.75
2023-03-05T13:42:02.914Z,99449.66
2023-03-05T13:47:18.143Z,99512.03
2023-03-05T13:52:28.591Z,99431.31
2023-03-05T13:57:42.215Z,99507.25
2023-03-05T14:02:44.355Z,99498.16
2023-03-05T14:07:49.863Z,99506.50
2023-03-05T14:12:51.462Z,99500.81
2023-03-05T14:18:08.619Z,99479.03
2023-03-05T14:23:46.916Z,99425.69
2023-03-05T14:28:54.281Z,99483.31
2023-03-05T14:34:01.955Z,99413.41
2023-03-05T14:39:04.953Z,99388.22
2023-03-05T14:44:15.378Z,99418.69
2023-03-05T14:49:17.451Z,99404.25
2023-03-05T14:54:25.990Z,99421.97
2023-03-05T14:59:27.726Z,99405.63
2023-03-05T15:04:29.371Z,99410.59
2023-03-05T15:09:30.962Z,99359.13
2023-03-05T15:14:32.533Z,99489.59
2023-03-05T15:19:34.081Z,99400.28
2023-03-05T15:24:35.667Z,99340.41
2023-03-05T15:29:37.307Z,99348.69
2023-03-05T15:34:38.943Z,99377.75
2023-03-05T15:39:40.660Z,99399.50
2023-03-05T15:44:42.460Z,99389.31
2023-03-05T15:49:44.023Z,99393.44
2023-03-05T15:54:45.610Z,99411.50
2023-03-05T15:59:47.267Z,99390.78
2023-03-05T16:04:48.880Z,99390.38
2023-03-05T16:09:51.889Z,99405.81
2023-03-05T16:14:53.536Z,99337.53
2023-03-05T16:19:56.249Z,99304.34
2023-03-05T16:24:58.391Z,99366.31
2023-03-05T16:30:00.178Z,99300.06
2023-03-05T16:35:01.846Z,99400.06
2023-03-05T16:40:04.249Z,99292.56
2023-03-05T16:45:07.468Z,99379.69
2023-03-05T16:50:10.952Z,99296.47
2023-03-05T16:55:12.815Z,99368.59
2023-03-05T17:00:15.086Z,99301.69
2023-03-05T17:05:16.857Z,99255.56
2023-03-05T17:10:18.688Z,99237.56
2023-03-05T17:15:20.377Z,99248.47
2023-03-05T17:20:22.112Z,99337.00
2023-03-05T17:25:23.831Z,99306.53
2023-03-05T17:30:25.560Z,99353.72
2023-03-05T17:35:27.821Z,99352.03
2023-03-05T17:40:29.612Z,99355.31
2023-03-05T17:45:31.588Z,99349.19
2023-03-05T17:50:33.387Z,99374.25
2023-03-05T17:55:35.224Z,99364.75
2023-03-05T18:00:37.555Z,99355.13
2023-03-05T18:05:40.951Z,99374.19
2023-03-05T18:10:42.705Z,99381.09
2023-03-05T18:15:47.750Z,99318.38
2023-03-05T18:20:49.829Z,99344.63
2023-03-05T18:25:51.689Z,99349.94
2023-03-05T18:30:53.486Z,99306.25
2023-03-05T18:35:55.278Z,99322.34
2023-03-05T18:41:01.422Z,99382.44
2023-03-05T18:46:05.107Z,99319.88
2023-03-05T18:51:14.033Z,99308.59
2023-03-05T18:56:15.700Z,99264.44
2023-03-05T19:01:18.603Z,99365.03
2023-03-05T19:06:20.327Z,99328.00
2023-03-05T19:11:22.084Z,99356.38
2023-03-05T19:16:27.838Z,99341.63
2023-03-05T19:21:31.244Z,99319.56
2023-03-05T19:26:33.707Z,99305.06
2023-03-05T19:31:36.845Z,99301.72
2023-03-05T19:36:38.756Z,99306.44
2023-03-05T19:41:40.381Z,99242.13
2023-03-05T19:46:43.580Z,99306.66
2023-03-05T19:51:46.473Z,99245.47
2023-03-05T19:56:49.144Z,99258.97
2023-03-05T20:01:51.143Z,99200.75
2023-03-05T20:06:52.890Z,99215.28
2023-03-05T20:11:54.670Z,99263.25
2023-03-05T20:16:56.313Z,99269.72
2023-03-05T20:21:57.974Z,99254.44
2023-03-05T20:27:00.631Z,99229.75
2023-03-05T20:32:02.532Z,99234.25
2023-03-05T20:37:05.681Z,99207.59
2023-03-05T20:42:07.342Z,99197.50
2023-03-05T20:47:46.478Z,99278.56
2023-03-05T20:52:48.173Z,99196.53
2023-03-05T20:57:49.834Z,99208.72
2023-03-05T21:02:54.626Z,99274.84
2023-03-05T21:07:57.613Z,99214.13
2023-03-05T21:13:00.892Z,99196.00
2023-03-05T21:18:02.710Z,99158.75
2023-03-05T21:23:04.534Z,99215.84
2023-03-05T21:28:16.507Z,99176.38
2023-03-05T21:33:24.516Z,99145.50
2023-03-05T21:38:29.877Z,99177.22
2023-03-05T21:43:32.355Z,99156.38
2023-03-05T21:48:34.301Z,99149.78
2023-03-05T21:53:36.303Z,99142.56
2023-03-05T21:58:38.063Z,99140.88
2023-03-05T22:03:39.827Z,99091.41
2023-03-05T22:08:41.780Z,99064.81
2023-03-05T22:13:43.572Z,99057.31
2023-03-05T22:18:45.256Z,99147.47
2023-03-05T22:23:47.278Z,99162.44
2023-03-05T22:28:48.942Z,99260.22
2023-03-05T22:33:51.188Z,99148.50
2023-03-05T22:38:52.993Z,99135.41
2023-03-05T22:43:54.738Z,99024.06
2023-03-05T22:48:56.451Z,99013.09
2023-03-05T22:53:58.292Z,99054.06
2023-03-05T22:58:59.938Z,99099.28
2023-03-05T23:04:49.765Z,99052.00
2023-03-05T23:09:54.080Z,99159.69
2023-03-05T23:14:55.930Z,99045.03
2023-03-05T23:19:57.754Z,98955.25
2023-03-05T23:24:59.437Z,99013.38
2023-03-05T23:30:23.062Z,99023.94
2023-03-05T23:35:29.039Z,99087.38
2023-03-05T23:40:33.972Z,98992.94
2023-03-05T23:45:35.635Z,99051.47
2023-03-05T23:50:40.887Z,99091.53
2023-03-05T23:55:44.484Z,99043.03
